sensor_id;sensor_type;location;lat;lon;timestamp;P1;durP1;ratioP1;P2;durP2;ratioP2
13228;SDS011;6680;53.220;10.402;2023-07-20T00:00:45;3.30;;;3.00;;
13228;SDS011;6680;53.220;10.402;2023-07-20T00:03:12;3.67;;;3.37;;
13228;SDS011;6680;53.220;10.402;2023-07-20T00:05:41;2.90;;;2.70;;
13228;SDS011;6680;53.220;10.402;2023-07-20T00:08:08;4.63;;;2.87;;
13228;SDS011;6680;53.220;10.402;2023-07-20T00:10:36;3.30;;;3.00;;
13228;SDS011;6680;53.220;10.402;2023-07-20T00:13:03;3.17;;;2.87;;
13228;SDS011;6680;53.220;10.402;2023-07-20T00:15:30;3.00;;;2.80;;
13228;SDS011;6680;53.220;10.402;2023-07-20T00:17:57;2.70;;;2.50;;
13228;SDS011;6680;53.220;10.402;2023-07-20T00:20:24;3.00;;;2.70;;
13228;SDS011;6680;53.220;10.402;2023-07-20T00:22:51;7.13;;;3.30;;
13228;SDS011;6680;53.220;10.402;2023-07-20T00:25:20;2.73;;;2.53;;
13228;SDS011;6680;53.220;10.402;2023-07-20T00:27:48;2.90;;;2.50;;
13228;SDS011;6680;53.220;10.402;2023-07-20T00:30:14;3.50;;;2.67;;
13228;SDS011;6680;53.220;10.402;2023-07-20T00:32:41;3.43;;;3.13;;
13228;SDS011;6680;53.220;10.402;2023-07-20T00:35:09;3.03;;;2.70;;
13228;SDS011;6680;53.220;10.402;2023-07-20T00:37:35;3.70;;;2.70;;
13228;SDS011;6680;53.220;10.402;2023-07-20T00:40:03;2.67;;;2.47;;
13228;SDS011;6680;53.220;10.402;2023-07-20T00:42:32;3.40;;;2.90;;
13228;SDS011;6680;53.220;10.402;2023-07-20T00:45:00;2.37;;;2.23;;
13228;SDS011;6680;53.220;10.402;2023-07-20T00:47:27;3.40;;;3.00;;
13228;SDS011;6680;53.220;10.402;2023-07-20T00:49:54;2.73;;;2.53;;
13228;SDS011;6680;53.220;10.402;2023-07-20T00:52:21;3.63;;;2.47;;
13228;SDS011;6680;53.220;10.402;2023-07-20T00:54:50;4.13;;;2.97;;
13228;SDS011;6680;53.220;10.402;2023-07-20T00:57:21;2.50;;;2.30;;
13228;SDS011;6680;53.220;10.402;2023-07-20T00:59:50;4.80;;;3.10;;
13228;SDS011;6680;53.220;10.402;2023-07-20T01:02:18;2.90;;;2.60;;
13228;SDS011;6680;53.220;10.402;2023-07-20T01:04:44;2.50;;;2.30;;
13228;SDS011;6680;53.220;10.402;2023-07-20T01:07:12;3.33;;;3.03;;
13228;SDS011;6680;53.220;10.402;2023-07-20T01:09:44;3.97;;;2.47;;
13228;SDS011;6680;53.220;10.402;2023-07-20T01:12:17;3.23;;;2.67;;
13228;SDS011;6680;53.220;10.402;2023-07-20T01:14:48;2.93;;;2.73;;
13228;SDS011;6680;53.220;10.402;2023-07-20T01:17:17;2.73;;;2.53;;
13228;SDS011;6680;53.220;10.402;2023-07-20T01:19:44;2.97;;;2.67;;
13228;SDS011;6680;53.220;10.402;2023-07-20T01:22:15;2.97;;;2.70;;
13228;SDS011;6680;53.220;10.402;2023-07-20T01:28:12;3.13;;;2.63;;
13228;SDS011;6680;53.220;10.402;2023-07-20T01:31:10;2.63;;;2.43;;
13228;SDS011;6680;53.220;10.402;2023-07-20T01:33:46;3.43;;;2.40;;
13228;SDS011;6680;53.220;10.402;2023-07-20T01:36:14;2.73;;;2.40;;
13228;SDS011;6680;53.220;10.402;2023-07-20T01:38:43;3.57;;;2.90;;
13228;SDS011;6680;53.220;10.402;2023-07-20T01:41:11;2.77;;;2.53;;
13228;SDS011;6680;53.220;10.402;2023-07-20T01:43:38;2.90;;;2.70;;
13228;SDS011;6680;53.220;10.402;2023-07-20T01:46:05;3.53;;;3.23;;
13228;SDS011;6680;53.220;10.402;2023-07-20T01:48:33;3.00;;;2.70;;
13228;SDS011;6680;53.220;10.402;2023-07-20T01:50:59;2.97;;;2.70;;
13228;SDS011;6680;53.220;10.402;2023-07-20T01:53:26;3.80;;;2.50;;
13228;SDS011;6680;53.220;10.402;2023-07-20T01:55:53;5.27;;;3.07;;
13228;SDS011;6680;53.220;10.402;2023-07-20T01:58:20;3.93;;;3.07;;
13228;SDS011;6680;53.220;10.402;2023-07-20T02:00:46;6.67;;;2.63;;
13228;SDS011;6680;53.220;10.402;2023-07-20T02:03:13;3.17;;;2.87;;
13228;SDS011;6680;53.220;10.402;2023-07-20T02:05:43;2.90;;;2.60;;
13228;SDS011;6680;53.220;10.402;2023-07-20T02:08:09;2.87;;;2.67;;
13228;SDS011;6680;53.220;10.402;2023-07-20T02:10:36;4.20;;;3.03;;
13228;SDS011;6680;53.220;10.402;2023-07-20T02:13:03;2.90;;;2.60;;
13228;SDS011;6680;53.220;10.402;2023-07-20T02:15:30;3.00;;;2.80;;
13228;SDS011;6680;53.220;10.402;2023-07-20T02:17:57;7.77;;;2.80;;
13228;SDS011;6680;53.220;10.402;2023-07-20T02:20:23;3.03;;;2.73;;
13228;SDS011;6680;53.220;10.402;2023-07-20T02:22:51;3.10;;;2.90;;
13228;SDS011;6680;53.220;10.402;2023-07-20T02:25:18;4.10;;;2.20;;
13228;SDS011;6680;53.220;10.402;2023-07-20T02:27:45;3.00;;;2.70;;
13228;SDS011;6680;53.220;10.402;2023-07-20T02:30:12;2.53;;;2.33;;
13228;SDS011;6680;53.220;10.402;2023-07-20T02:32:38;3.13;;;2.83;;
13228;SDS011;6680;53.220;10.402;2023-07-20T02:35:06;3.07;;;2.87;;
13228;SDS011;6680;53.220;10.402;2023-07-20T02:37:33;2.93;;;2.73;;
13228;SDS011;6680;53.220;10.402;2023-07-20T02:40:00;5.07;;;2.73;;
13228;SDS011;6680;53.220;10.402;2023-07-20T02:42:29;3.13;;;2.80;;
13228;SDS011;6680;53.220;10.402;2023-07-20T02:44:55;2.63;;;2.40;;
13228;SDS011;6680;53.220;10.402;2023-07-20T02:47:22;3.10;;;2.80;;
13228;SDS011;6680;53.220;10.402;2023-07-20T02:49:49;4.77;;;2.93;;
13228;SDS011;6680;53.220;10.402;2023-07-20T02:52:16;6.63;;;3.20;;
13228;SDS011;6680;53.220;10.402;2023-07-20T02:54:42;3.30;;;3.00;;
13228;SDS011;6680;53.220;10.402;2023-07-20T02:57:10;3.57;;;3.27;;
13228;SDS011;6680;53.220;10.402;2023-07-20T02:59:37;3.27;;;2.97;;
13228;SDS011;6680;53.220;10.402;2023-07-20T03:02:04;3.87;;;3.10;;
13228;SDS011;6680;53.220;10.402;2023-07-20T03:04:34;5.00;;;3.23;;
13228;SDS011;6680;53.220;10.402;2023-07-20T03:07:02;4.27;;;3.00;;
13228;SDS011;6680;53.220;10.402;2023-07-20T03:09:30;5.80;;;3.30;;
13228;SDS011;6680;53.220;10.402;2023-07-20T03:11:57;5.33;;;3.93;;
13228;SDS011;6680;53.220;10.402;2023-07-20T03:14:25;3.97;;;3.57;;
13228;SDS011;6680;53.220;10.402;2023-07-20T03:16:51;4.50;;;3.43;;
13228;SDS011;6680;53.220;10.402;2023-07-20T03:19:18;6.83;;;3.13;;
13228;SDS011;6680;53.220;10.402;2023-07-20T03:21:45;4.03;;;3.50;;
13228;SDS011;6680;53.220;10.402;2023-07-20T03:24:11;4.37;;;3.53;;
13228;SDS011;6680;53.220;10.402;2023-07-20T03:26:38;3.53;;;3.23;;
13228;SDS011;6680;53.220;10.402;2023-07-20T03:29:05;3.70;;;3.10;;
13228;SDS011;6680;53.220;10.402;2023-07-20T03:31:33;3.73;;;2.83;;
13228;SDS011;6680;53.220;10.402;2023-07-20T03:33:59;4.57;;;3.70;;
13228;SDS011;6680;53.220;10.402;2023-07-20T03:36:26;4.33;;;3.30;;
13228;SDS011;6680;53.220;10.402;2023-07-20T03:38:53;4.00;;;2.90;;
13228;SDS011;6680;53.220;10.402;2023-07-20T03:41:19;6.87;;;3.20;;
13228;SDS011;6680;53.220;10.402;2023-07-20T03:43:46;3.20;;;2.90;;
13228;SDS011;6680;53.220;10.402;2023-07-20T03:46:13;2.77;;;2.57;;
13228;SDS011;6680;53.220;10.402;2023-07-20T03:48:41;4.30;;;2.90;;
13228;SDS011;6680;53.220;10.402;2023-07-20T03:51:08;3.30;;;3.00;;
13228;SDS011;6680;53.220;10.402;2023-07-20T03:53:35;3.73;;;3.00;;
13228;SDS011;6680;53.220;10.402;2023-07-20T03:56:01;2.50;;;2.30;;
13228;SDS011;6680;53.220;10.402;2023-07-20T03:58:28;2.83;;;2.53;;
13228;SDS011;6680;53.220;10.402;2023-07-20T04:00:57;3.20;;;2.50;;
13228;SDS011;6680;53.220;10.402;2023-07-20T04:03:23;2.73;;;2.53;;
13228;SDS011;6680;53.220;10.402;2023-07-20T04:05:54;3.60;;;2.93;;
13228;SDS011;6680;53.220;10.402;2023-07-20T04:08:22;3.43;;;2.37;;
13228;SDS011;6680;53.220;10.402;2023-07-20T04:10:50;2.50;;;2.27;;
13228;SDS011;6680;53.220;10.402;2023-07-20T04:13:16;2.47;;;2.10;;
13228;SDS011;6680;53.220;10.402;2023-07-20T04:15:43;2.07;;;1.93;;
13228;SDS011;6680;53.220;10.402;2023-07-20T04:18:10;2.13;;;1.87;;
13228;SDS011;6680;53.220;10.402;2023-07-20T04:20:36;2.40;;;2.20;;
13228;SDS011;6680;53.220;10.402;2023-07-20T04:23:04;2.30;;;2.10;;
13228;SDS011;6680;53.220;10.402;2023-07-20T04:25:31;2.70;;;2.03;;
13228;SDS011;6680;53.220;10.402;2023-07-20T04:28:03;1.80;;;1.70;;
13228;SDS011;6680;53.220;10.402;2023-07-20T04:30:33;3.20;;;1.97;;
13228;SDS011;6680;53.220;10.402;2023-07-20T04:33:00;1.97;;;1.83;;
13228;SDS011;6680;53.220;10.402;2023-07-20T04:38:13;1.80;;;1.70;;
13228;SDS011;6680;53.220;10.402;2023-07-20T04:40:40;1.80;;;1.70;;
13228;SDS011;6680;53.220;10.402;2023-07-20T04:43:07;1.83;;;1.73;;
13228;SDS011;6680;53.220;10.402;2023-07-20T04:45:34;1.53;;;1.43;;
13228;SDS011;6680;53.220;10.402;2023-07-20T04:48:00;2.17;;;1.97;;
13228;SDS011;6680;53.220;10.402;2023-07-20T04:50:27;1.63;;;1.53;;
13228;SDS011;6680;53.220;10.402;2023-07-20T04:52:54;5.07;;;2.20;;
13228;SDS011;6680;53.220;10.402;2023-07-20T04:55:22;2.37;;;1.77;;
13228;SDS011;6680;53.220;10.402;2023-07-20T04:57:48;1.53;;;1.43;;
13228;SDS011;6680;53.220;10.402;2023-07-20T05:00:15;1.77;;;1.67;;
13228;SDS011;6680;53.220;10.402;2023-07-20T05:02:43;1.87;;;1.77;;
13228;SDS011;6680;53.220;10.402;2023-07-20T05:05:09;1.60;;;1.50;;
13228;SDS011;6680;53.220;10.402;2023-07-20T05:07:36;1.97;;;1.70;;
13228;SDS011;6680;53.220;10.402;2023-07-20T05:10:03;2.83;;;1.83;;
13228;SDS011;6680;53.220;10.402;2023-07-20T05:12:32;2.20;;;2.00;;
13228;SDS011;6680;53.220;10.402;2023-07-20T05:14:58;1.83;;;1.73;;
13228;SDS011;6680;53.220;10.402;2023-07-20T05:17:25;1.80;;;1.70;;
13228;SDS011;6680;53.220;10.402;2023-07-20T05:19:52;1.90;;;1.80;;
13228;SDS011;6680;53.220;10.402;2023-07-20T05:22:18;1.90;;;1.80;;
13228;SDS011;6680;53.220;10.402;2023-07-20T05:24:45;3.03;;;1.80;;
13228;SDS011;6680;53.220;10.402;2023-07-20T05:27:12;2.27;;;2.07;;
13228;SDS011;6680;53.220;10.402;2023-07-20T05:29:44;2.13;;;2.03;;
13228;SDS011;6680;53.220;10.402;2023-07-20T05:32:10;2.27;;;2.10;;
13228;SDS011;6680;53.220;10.402;2023-07-20T05:34:37;2.07;;;1.90;;
13228;SDS011;6680;53.220;10.402;2023-07-20T05:37:04;2.07;;;1.87;;
13228;SDS011;6680;53.220;10.402;2023-07-20T05:39:32;2.43;;;2.23;;
13228;SDS011;6680;53.220;10.402;2023-07-20T05:41:59;2.60;;;2.40;;
13228;SDS011;6680;53.220;10.402;2023-07-20T05:44:25;2.93;;;2.30;;
13228;SDS011;6680;53.220;10.402;2023-07-20T05:46:53;2.40;;;2.20;;
13228;SDS011;6680;53.220;10.402;2023-07-20T05:49:20;2.10;;;2.00;;
13228;SDS011;6680;53.220;10.402;2023-07-20T05:51:47;2.57;;;2.37;;
13228;SDS011;6680;53.220;10.402;2023-07-20T05:54:13;2.27;;;2.10;;
13228;SDS011;6680;53.220;10.402;2023-07-20T05:56:40;2.30;;;2.10;;
13228;SDS011;6680;53.220;10.402;2023-07-20T05:59:07;2.00;;;1.87;;
13228;SDS011;6680;53.220;10.402;2023-07-20T06:01:33;2.13;;;2.03;;
13228;SDS011;6680;53.220;10.402;2023-07-20T06:04:01;2.73;;;2.10;;
13228;SDS011;6680;53.220;10.402;2023-07-20T06:06:29;1.87;;;1.77;;
13228;SDS011;6680;53.220;10.402;2023-07-20T06:08:55;2.00;;;1.90;;
13228;SDS011;6680;53.220;10.402;2023-07-20T06:11:22;2.00;;;1.90;;
13228;SDS011;6680;53.220;10.402;2023-07-20T06:13:49;1.80;;;1.70;;
13228;SDS011;6680;53.220;10.402;2023-07-20T06:16:15;3.07;;;2.00;;
13228;SDS011;6680;53.220;10.402;2023-07-20T06:18:42;1.90;;;1.80;;
13228;SDS011;6680;53.220;10.402;2023-07-20T06:21:11;3.93;;;1.80;;
13228;SDS011;6680;53.220;10.402;2023-07-20T06:23:38;1.80;;;1.70;;
13228;SDS011;6680;53.220;10.402;2023-07-20T06:26:05;2.87;;;2.13;;
13228;SDS011;6680;53.220;10.402;2023-07-20T06:28:32;1.87;;;1.73;;
13228;SDS011;6680;53.220;10.402;2023-07-20T06:30:59;1.90;;;1.80;;
13228;SDS011;6680;53.220;10.402;2023-07-20T06:33:26;1.97;;;1.87;;
13228;SDS011;6680;53.220;10.402;2023-07-20T06:35:52;2.00;;;1.90;;
13228;SDS011;6680;53.220;10.402;2023-07-20T06:38:20;2.43;;;2.00;;
13228;SDS011;6680;53.220;10.402;2023-07-20T06:40:48;3.37;;;2.23;;
13228;SDS011;6680;53.220;10.402;2023-07-20T06:43:15;2.20;;;2.00;;
13228;SDS011;6680;53.220;10.402;2023-07-20T06:45:42;2.20;;;2.00;;
13228;SDS011;6680;53.220;10.402;2023-07-20T06:48:08;1.80;;;1.70;;
13228;SDS011;6680;53.220;10.402;2023-07-20T06:50:35;3.23;;;2.10;;
13228;SDS011;6680;53.220;10.402;2023-07-20T06:53:02;4.70;;;1.80;;
13228;SDS011;6680;53.220;10.402;2023-07-20T06:55:30;1.93;;;1.83;;
13228;SDS011;6680;53.220;10.402;2023-07-20T06:57:57;2.83;;;1.80;;
13228;SDS011;6680;53.220;10.402;2023-07-20T07:00:23;2.27;;;2.10;;
13228;SDS011;6680;53.220;10.402;2023-07-20T07:02:50;1.90;;;1.80;;
13228;SDS011;6680;53.220;10.402;2023-07-20T07:05:17;2.20;;;2.10;;
13228;SDS011;6680;53.220;10.402;2023-07-20T07:07:44;2.60;;;2.10;;
13228;SDS011;6680;53.220;10.402;2023-07-20T07:10:10;2.17;;;1.97;;
13228;SDS011;6680;53.220;10.402;2023-07-20T07:12:38;1.93;;;1.83;;
13228;SDS011;6680;53.220;10.402;2023-07-20T07:15:06;2.10;;;1.87;;
13228;SDS011;6680;53.220;10.402;2023-07-20T07:17:33;2.73;;;1.67;;
13228;SDS011;6680;53.220;10.402;2023-07-20T07:20:00;2.00;;;1.90;;
13228;SDS011;6680;53.220;10.402;2023-07-20T07:22:27;1.97;;;1.87;;
13228;SDS011;6680;53.220;10.402;2023-07-20T07:24:54;3.37;;;1.80;;
13228;SDS011;6680;53.220;10.402;2023-07-20T07:27:21;2.07;;;1.97;;
13228;SDS011;6680;53.220;10.402;2023-07-20T07:29:49;1.70;;;1.60;;
13228;SDS011;6680;53.220;10.402;2023-07-20T07:32:15;3.40;;;1.70;;
13228;SDS011;6680;53.220;10.402;2023-07-20T07:34:43;1.67;;;1.57;;
13228;SDS011;6680;53.220;10.402;2023-07-20T07:37:11;1.83;;;1.73;;
13228;SDS011;6680;53.220;10.402;2023-07-20T07:39:38;2.27;;;2.00;;
13228;SDS011;6680;53.220;10.402;2023-07-20T07:42:05;2.00;;;1.90;;
13228;SDS011;6680;53.220;10.402;2023-07-20T07:44:32;1.70;;;1.60;;
13228;SDS011;6680;53.220;10.402;2023-07-20T07:47:00;3.40;;;1.70;;
13228;SDS011;6680;53.220;10.402;2023-07-20T07:49:27;2.00;;;1.90;;
13228;SDS011;6680;53.220;10.402;2023-07-20T07:51:54;1.93;;;1.80;;
13228;SDS011;6680;53.220;10.402;2023-07-20T07:54:20;2.47;;;1.70;;
13228;SDS011;6680;53.220;10.402;2023-07-20T07:56:47;1.83;;;1.73;;
13228;SDS011;6680;53.220;10.402;2023-07-20T07:59:14;1.70;;;1.60;;
13228;SDS011;6680;53.220;10.402;2023-07-20T08:01:41;4.63;;;1.63;;
13228;SDS011;6680;53.220;10.402;2023-07-20T08:04:09;1.77;;;1.67;;
13228;SDS011;6680;53.220;10.402;2023-07-20T08:06:35;3.27;;;1.77;;
13228;SDS011;6680;53.220;10.402;2023-07-20T08:09:02;1.83;;;1.73;;
13228;SDS011;6680;53.220;10.402;2023-07-20T08:11:29;1.50;;;1.40;;
13228;SDS011;6680;53.220;10.402;2023-07-20T08:13:58;3.33;;;2.00;;
13228;SDS011;6680;53.220;10.402;2023-07-20T08:16:25;1.50;;;1.50;;
13228;SDS011;6680;53.220;10.402;2023-07-20T08:18:52;1.80;;;1.70;;
13228;SDS011;6680;53.220;10.402;2023-07-20T08:21:20;2.00;;;1.80;;
13228;SDS011;6680;53.220;10.402;2023-07-20T08:23:46;2.10;;;1.70;;
13228;SDS011;6680;53.220;10.402;2023-07-20T08:26:13;2.03;;;1.80;;
13228;SDS011;6680;53.220;10.402;2023-07-20T08:28:40;2.70;;;1.93;;
13228;SDS011;6680;53.220;10.402;2023-07-20T08:31:08;1.87;;;1.77;;
13228;SDS011;6680;53.220;10.402;2023-07-20T08:33:35;1.47;;;1.47;;
13228;SDS011;6680;53.220;10.402;2023-07-20T08:36:01;1.63;;;1.53;;
13228;SDS011;6680;53.220;10.402;2023-07-20T08:38:30;1.50;;;1.40;;
13228;SDS011;6680;53.220;10.402;2023-07-20T08:40:56;1.50;;;1.40;;
13228;SDS011;6680;53.220;10.402;2023-07-20T08:43:25;1.43;;;1.40;;
13228;SDS011;6680;53.220;10.402;2023-07-20T08:45:52;2.97;;;1.57;;
13228;SDS011;6680;53.220;10.402;2023-07-20T08:48:21;1.80;;;1.70;;
13228;SDS011;6680;53.220;10.402;2023-07-20T08:50:49;2.13;;;1.83;;
13228;SDS011;6680;53.220;10.402;2023-07-20T08:53:17;2.00;;;1.83;;
13228;SDS011;6680;53.220;10.402;2023-07-20T08:55:46;1.63;;;1.53;;
13228;SDS011;6680;53.220;10.402;2023-07-20T08:58:16;2.80;;;1.80;;
13228;SDS011;6680;53.220;10.402;2023-07-20T09:00:43;2.40;;;1.87;;
13228;SDS011;6680;53.220;10.402;2023-07-20T09:03:10;1.80;;;1.70;;
13228;SDS011;6680;53.220;10.402;2023-07-20T09:05:37;3.27;;;1.90;;
13228;SDS011;6680;53.220;10.402;2023-07-20T09:08:05;1.90;;;1.80;;
13228;SDS011;6680;53.220;10.402;2023-07-20T09:10:33;1.90;;;1.80;;
13228;SDS011;6680;53.220;10.402;2023-07-20T09:13:01;1.80;;;1.70;;
13228;SDS011;6680;53.220;10.402;2023-07-20T09:15:28;1.63;;;1.40;;
13228;SDS011;6680;53.220;10.402;2023-07-20T09:17:55;1.90;;;1.57;;
13228;SDS011;6680;53.220;10.402;2023-07-20T09:20:22;1.70;;;1.60;;
13228;SDS011;6680;53.220;10.402;2023-07-20T09:22:50;2.60;;;1.70;;
13228;SDS011;6680;53.220;10.402;2023-07-20T09:25:17;1.60;;;1.50;;
13228;SDS011;6680;53.220;10.402;2023-07-20T09:27:46;1.63;;;1.53;;
13228;SDS011;6680;53.220;10.402;2023-07-20T09:30:15;1.50;;;1.40;;
13228;SDS011;6680;53.220;10.402;2023-07-20T09:32:43;1.83;;;1.60;;
13228;SDS011;6680;53.220;10.402;2023-07-20T09:35:13;1.60;;;1.50;;
13228;SDS011;6680;53.220;10.402;2023-07-20T09:37:46;1.73;;;1.63;;
13228;SDS011;6680;53.220;10.402;2023-07-20T09:40:17;1.60;;;1.50;;
13228;SDS011;6680;53.220;10.402;2023-07-20T09:42:45;1.50;;;1.50;;
13228;SDS011;6680;53.220;10.402;2023-07-20T09:45:12;1.53;;;1.43;;
13228;SDS011;6680;53.220;10.402;2023-07-20T09:47:40;1.63;;;1.53;;
13228;SDS011;6680;53.220;10.402;2023-07-20T09:50:07;1.60;;;1.50;;
13228;SDS011;6680;53.220;10.402;2023-07-20T09:52:37;2.37;;;2.17;;
13228;SDS011;6680;53.220;10.402;2023-07-20T09:55:06;1.60;;;1.50;;
13228;SDS011;6680;53.220;10.402;2023-07-20T09:57:33;2.00;;;1.90;;
13228;SDS011;6680;53.220;10.402;2023-07-20T10:00:01;2.13;;;1.80;;
13228;SDS011;6680;53.220;10.402;2023-07-20T10:02:33;2.10;;;1.80;;
13228;SDS011;6680;53.220;10.402;2023-07-20T10:05:04;2.40;;;1.70;;
13228;SDS011;6680;53.220;10.402;2023-07-20T10:07:33;2.90;;;2.00;;
13228;SDS011;6680;53.220;10.402;2023-07-20T10:10:02;1.97;;;1.87;;
13228;SDS011;6680;53.220;10.402;2023-07-20T10:12:30;2.37;;;2.03;;
13228;SDS011;6680;53.220;10.402;2023-07-20T10:14:59;2.37;;;1.87;;
13228;SDS011;6680;53.220;10.402;2023-07-20T10:17:36;1.83;;;1.73;;
13228;SDS011;6680;53.220;10.402;2023-07-20T10:20:16;2.70;;;2.33;;
13228;SDS011;6680;53.220;10.402;2023-07-20T10:22:45;2.63;;;2.10;;
13228;SDS011;6680;53.220;10.402;2023-07-20T10:25:15;5.13;;;2.20;;
13228;SDS011;6680;53.220;10.402;2023-07-20T10:27:42;2.40;;;1.97;;
13228;SDS011;6680;53.220;10.402;2023-07-20T10:30:10;1.80;;;1.70;;
13228;SDS011;6680;53.220;10.402;2023-07-20T10:32:37;1.90;;;1.80;;
13228;SDS011;6680;53.220;10.402;2023-07-20T10:35:12;2.33;;;2.13;;
13228;SDS011;6680;53.220;10.402;2023-07-20T10:37:48;3.87;;;2.10;;
13228;SDS011;6680;53.220;10.402;2023-07-20T10:40:29;2.23;;;2.13;;
13228;SDS011;6680;53.220;10.402;2023-07-20T10:42:58;2.30;;;2.10;;
13228;SDS011;6680;53.220;10.402;2023-07-20T10:48:14;3.27;;;2.13;;
13228;SDS011;6680;53.220;10.402;2023-07-20T10:50:42;2.07;;;1.87;;
13228;SDS011;6680;53.220;10.402;2023-07-20T10:53:11;3.17;;;2.10;;
13228;SDS011;6680;53.220;10.402;2023-07-20T10:55:40;2.20;;;2.00;;
13228;SDS011;6680;53.220;10.402;2023-07-20T10:58:07;2.30;;;2.10;;
13228;SDS011;6680;53.220;10.402;2023-07-20T11:00:36;3.07;;;2.27;;
13228;SDS011;6680;53.220;10.402;2023-07-20T11:03:03;2.67;;;2.07;;
13228;SDS011;6680;53.220;10.402;2023-07-20T11:05:34;3.97;;;2.00;;
13228;SDS011;6680;53.220;10.402;2023-07-20T11:08:05;6.17;;;2.00;;
13228;SDS011;6680;53.220;10.402;2023-07-20T11:10:36;3.60;;;1.90;;
13228;SDS011;6680;53.220;10.402;2023-07-20T11:13:15;2.30;;;2.10;;
13228;SDS011;6680;53.220;10.402;2023-07-20T11:15:46;2.40;;;2.20;;
13228;SDS011;6680;53.220;10.402;2023-07-20T11:18:14;2.23;;;1.53;;
13228;SDS011;6680;53.220;10.402;2023-07-20T11:20:41;2.13;;;1.90;;
13228;SDS011;6680;53.220;10.402;2023-07-20T11:23:08;1.90;;;1.70;;
13228;SDS011;6680;53.220;10.402;2023-07-20T11:25:38;2.03;;;1.40;;
13228;SDS011;6680;53.220;10.402;2023-07-20T11:28:08;2.07;;;1.43;;
13228;SDS011;6680;53.220;10.402;2023-07-20T11:30:36;2.50;;;1.67;;
13228;SDS011;6680;53.220;10.402;2023-07-20T11:33:03;4.70;;;2.00;;
13228;SDS011;6680;53.220;10.402;2023-07-20T11:35:30;2.30;;;2.10;;
13228;SDS011;6680;53.220;10.402;2023-07-20T11:37:58;2.53;;;1.90;;
13228;SDS011;6680;53.220;10.402;2023-07-20T11:40:24;1.50;;;1.40;;
13228;SDS011;6680;53.220;10.402;2023-07-20T11:42:52;2.50;;;1.80;;
13228;SDS011;6680;53.220;10.402;2023-07-20T11:45:19;1.60;;;1.50;;
13228;SDS011;6680;53.220;10.402;2023-07-20T11:47:46;1.77;;;1.67;;
13228;SDS011;6680;53.220;10.402;2023-07-20T11:50:13;2.00;;;1.70;;
13228;SDS011;6680;53.220;10.402;2023-07-20T11:52:40;2.83;;;1.50;;
13228;SDS011;6680;53.220;10.402;2023-07-20T11:55:07;2.33;;;1.50;;
13228;SDS011;6680;53.220;10.402;2023-07-20T11:57:34;1.73;;;1.60;;
13228;SDS011;6680;53.220;10.402;2023-07-20T12:00:02;2.10;;;1.60;;
13228;SDS011;6680;53.220;10.402;2023-07-20T12:02:34;1.70;;;1.60;;
13228;SDS011;6680;53.220;10.402;2023-07-20T12:05:02;1.40;;;1.30;;
13228;SDS011;6680;53.220;10.402;2023-07-20T12:07:29;2.90;;;1.47;;
13228;SDS011;6680;53.220;10.402;2023-07-20T12:10:04;3.23;;;1.97;;
13228;SDS011;6680;53.220;10.402;2023-07-20T12:12:32;3.60;;;1.80;;
13228;SDS011;6680;53.220;10.402;2023-07-20T12:15:13;2.90;;;2.03;;
13228;SDS011;6680;53.220;10.402;2023-07-20T12:17:41;3.03;;;1.53;;
13228;SDS011;6680;53.220;10.402;2023-07-20T12:20:09;1.90;;;1.70;;
13228;SDS011;6680;53.220;10.402;2023-07-20T12:22:40;2.90;;;1.80;;
13228;SDS011;6680;53.220;10.402;2023-07-20T12:25:09;1.67;;;1.57;;
13228;SDS011;6680;53.220;10.402;2023-07-20T12:27:36;2.00;;;1.90;;
13228;SDS011;6680;53.220;10.402;2023-07-20T12:30:04;1.83;;;1.67;;
13228;SDS011;6680;53.220;10.402;2023-07-20T12:32:33;3.37;;;1.87;;
13228;SDS011;6680;53.220;10.402;2023-07-20T12:35:00;1.60;;;1.50;;
13228;SDS011;6680;53.220;10.402;2023-07-20T12:37:27;1.90;;;1.57;;
13228;SDS011;6680;53.220;10.402;2023-07-20T12:39:54;1.83;;;1.63;;
13228;SDS011;6680;53.220;10.402;2023-07-20T12:42:21;1.87;;;1.70;;
13228;SDS011;6680;53.220;10.402;2023-07-20T12:44:48;1.80;;;1.70;;
13228;SDS011;6680;53.220;10.402;2023-07-20T12:47:15;1.70;;;1.60;;
13228;SDS011;6680;53.220;10.402;2023-07-20T12:49:44;2.27;;;1.53;;
13228;SDS011;6680;53.220;10.402;2023-07-20T12:52:11;2.67;;;1.73;;
13228;SDS011;6680;53.220;10.402;2023-07-20T12:54:38;2.07;;;1.87;;
13228;SDS011;6680;53.220;10.402;2023-07-20T12:57:05;1.40;;;1.30;;
13228;SDS011;6680;53.220;10.402;2023-07-20T12:59:32;1.83;;;1.73;;
13228;SDS011;6680;53.220;10.402;2023-07-20T13:01:59;1.90;;;1.80;;
13228;SDS011;6680;53.220;10.402;2023-07-20T13:04:26;3.67;;;1.43;;
13228;SDS011;6680;53.220;10.402;2023-07-20T13:06:54;2.73;;;1.60;;
13228;SDS011;6680;53.220;10.402;2023-07-20T13:09:23;6.37;;;1.97;;
13228;SDS011;6680;53.220;10.402;2023-07-20T13:11:50;1.60;;;1.50;;
13228;SDS011;6680;53.220;10.402;2023-07-20T13:14:17;1.67;;;1.33;;
13228;SDS011;6680;53.220;10.402;2023-07-20T13:16:44;1.57;;;1.50;;
13228;SDS011;6680;53.220;10.402;2023-07-20T13:19:11;2.87;;;1.70;;
13228;SDS011;6680;53.220;10.402;2023-07-20T13:21:37;1.60;;;1.50;;
13228;SDS011;6680;53.220;10.402;2023-07-20T13:24:06;1.60;;;1.50;;
13228;SDS011;6680;53.220;10.402;2023-07-20T13:26:32;2.57;;;1.40;;
13228;SDS011;6680;53.220;10.402;2023-07-20T13:28:59;3.07;;;1.30;;
13228;SDS011;6680;53.220;10.402;2023-07-20T13:31:26;1.50;;;1.40;;
13228;SDS011;6680;53.220;10.402;2023-07-20T13:33:52;2.00;;;1.67;;
13228;SDS011;6680;53.220;10.402;2023-07-20T13:36:20;1.70;;;1.60;;
13228;SDS011;6680;53.220;10.402;2023-07-20T13:38:46;1.40;;;1.30;;
13228;SDS011;6680;53.220;10.402;2023-07-20T13:41:15;5.17;;;1.67;;
13228;SDS011;6680;53.220;10.402;2023-07-20T13:43:42;1.73;;;1.63;;
13228;SDS011;6680;53.220;10.402;2023-07-20T13:46:09;2.33;;;1.77;;
13228;SDS011;6680;53.220;10.402;2023-07-20T13:48:35;1.43;;;1.30;;
13228;SDS011;6680;53.220;10.402;2023-07-20T13:51:03;1.83;;;1.70;;
13228;SDS011;6680;53.220;10.402;2023-07-20T13:53:30;2.10;;;1.63;;
13228;SDS011;6680;53.220;10.402;2023-07-20T13:55:57;1.47;;;1.37;;
13228;SDS011;6680;53.220;10.402;2023-07-20T13:58:25;3.07;;;1.67;;
13228;SDS011;6680;53.220;10.402;2023-07-20T14:00:52;1.80;;;1.60;;
13228;SDS011;6680;53.220;10.402;2023-07-20T14:03:20;1.70;;;1.60;;
13228;SDS011;6680;53.220;10.402;2023-07-20T14:05:46;1.33;;;1.30;;
13228;SDS011;6680;53.220;10.402;2023-07-20T14:08:14;1.53;;;1.20;;
13228;SDS011;6680;53.220;10.402;2023-07-20T14:10:40;1.60;;;1.50;;
13228;SDS011;6680;53.220;10.402;2023-07-20T14:13:07;3.83;;;1.60;;
13228;SDS011;6680;53.220;10.402;2023-07-20T14:15:35;1.57;;;1.47;;
13228;SDS011;6680;53.220;10.402;2023-07-20T14:18:02;1.57;;;1.47;;
13228;SDS011;6680;53.220;10.402;2023-07-20T14:20:29;1.50;;;1.43;;
13228;SDS011;6680;53.220;10.402;2023-07-20T14:22:56;1.63;;;1.53;;
13228;SDS011;6680;53.220;10.402;2023-07-20T14:25:22;1.63;;;1.53;;
13228;SDS011;6680;53.220;10.402;2023-07-20T14:27:49;3.23;;;1.60;;
13228;SDS011;6680;53.220;10.402;2023-07-20T14:30:16;1.87;;;1.77;;
13228;SDS011;6680;53.220;10.402;2023-07-20T14:32:44;3.13;;;1.83;;
13228;SDS011;6680;53.220;10.402;2023-07-20T14:35:10;2.40;;;1.70;;
13228;SDS011;6680;53.220;10.402;2023-07-20T14:37:37;2.03;;;1.83;;
13228;SDS011;6680;53.220;10.402;2023-07-20T14:40:04;2.40;;;1.70;;
13228;SDS011;6680;53.220;10.402;2023-07-20T14:42:32;2.43;;;1.90;;
13228;SDS011;6680;53.220;10.402;2023-07-20T14:44:58;4.57;;;1.90;;
13228;SDS011;6680;53.220;10.402;2023-07-20T14:47:25;2.07;;;1.80;;
13228;SDS011;6680;53.220;10.402;2023-07-20T14:49:54;2.20;;;2.00;;
13228;SDS011;6680;53.220;10.402;2023-07-20T14:52:20;3.83;;;1.87;;
13228;SDS011;6680;53.220;10.402;2023-07-20T14:54:47;4.17;;;1.90;;
13228;SDS011;6680;53.220;10.402;2023-07-20T14:57:14;3.53;;;2.00;;
13228;SDS011;6680;53.220;10.402;2023-07-20T14:59:41;1.73;;;1.63;;